sensor_id;sensor_type;location;lat;lon;timestamp;P1;durP1;ratioP1;P2;durP2;ratioP2
84386;SDS011;74580;47.078;15.446;2024-01-30T00:01:53;4.72;;;2.33;;
84386;SDS011;74580;47.078;15.446;2024-01-30T00:04:19;4.47;;;2.63;;
84386;SDS011;74580;47.078;15.446;2024-01-30T00:06:44;3.35;;;2.30;;
84386;SDS011;74580;47.078;15.446;2024-01-30T00:09:10;3.30;;;2.63;;
84386;SDS011;74580;47.078;15.446;2024-01-30T00:11:36;3.70;;;2.50;;
84386;SDS011;74580;47.078;15.446;2024-01-30T00:14:02;5.00;;;2.30;;
84386;SDS011;74580;47.078;15.446;2024-01-30T00:16:28;4.35;;;2.53;;
84386;SDS011;74580;47.078;15.446;2024-01-30T00:18:54;3.60;;;2.20;;
84386;SDS011;74580;47.078;15.446;2024-01-30T00:21:19;3.85;;;2.10;;
84386;SDS011;74580;47.078;15.446;2024-01-30T00:23:45;3.88;;;2.33;;
84386;SDS011;74580;47.078;15.446;2024-01-30T00:26:11;3.42;;;2.08;;
84386;SDS011;74580;47.078;15.446;2024-01-30T00:28:40;3.75;;;2.40;;
84386;SDS011;74580;47.078;15.446;2024-01-30T00:31:06;3.58;;;2.05;;
84386;SDS011;74580;47.078;15.446;2024-01-30T00:33:31;3.72;;;2.38;;
84386;SDS011;74580;47.078;15.446;2024-01-30T00:35:57;4.55;;;2.50;;
84386;SDS011;74580;47.078;15.446;2024-01-30T00:38:22;4.28;;;2.28;;
84386;SDS011;74580;47.078;15.446;2024-01-30T00:40:47;3.47;;;2.63;;
84386;SDS011;74580;47.078;15.446;2024-01-30T00:43:13;3.70;;;2.50;;
84386;SDS011;74580;47.078;15.446;2024-01-30T00:45:39;3.28;;;2.55;;
84386;SDS011;74580;47.078;15.446;2024-01-30T00:48:04;3.72;;;2.58;;
84386;SDS011;74580;47.078;15.446;2024-01-30T00:50:30;3.50;;;2.10;;
84386;SDS011;74580;47.078;15.446;2024-01-30T00:52:55;2.88;;;1.98;;
84386;SDS011;74580;47.078;15.446;2024-01-30T00:55:20;2.70;;;1.80;;
84386;SDS011;74580;47.078;15.446;2024-01-30T00:57:46;4.57;;;2.60;;
84386;SDS011;74580;47.078;15.446;2024-01-30T01:00:12;4.47;;;2.80;;
84386;SDS011;74580;47.078;15.446;2024-01-30T01:02:40;3.70;;;1.98;;
84386;SDS011;74580;47.078;15.446;2024-01-30T01:05:06;4.20;;;2.50;;
84386;SDS011;74580;47.078;15.446;2024-01-30T01:07:31;3.90;;;2.78;;
84386;SDS011;74580;47.078;15.446;2024-01-30T01:09:57;3.97;;;2.60;;
84386;SDS011;74580;47.078;15.446;2024-01-30T01:12:22;3.88;;;2.25;;
84386;SDS011;74580;47.078;15.446;2024-01-30T01:14:47;3.33;;;2.40;;
84386;SDS011;74580;47.078;15.446;2024-01-30T01:17:13;3.80;;;2.60;;
84386;SDS011;74580;47.078;15.446;2024-01-30T01:19:38;4.15;;;2.35;;
84386;SDS011;74580;47.078;15.446;2024-01-30T01:22:04;3.03;;;2.15;;
84386;SDS011;74580;47.078;15.446;2024-01-30T01:24:31;4.25;;;2.22;;
84386;SDS011;74580;47.078;15.446;2024-01-30T01:26:57;4.00;;;2.60;;
84386;SDS011;74580;47.078;15.446;2024-01-30T01:29:23;4.18;;;2.35;;
84386;SDS011;74580;47.078;15.446;2024-01-30T01:31:53;3.03;;;2.13;;
84386;SDS011;74580;47.078;15.446;2024-01-30T01:34:20;3.33;;;2.15;;
84386;SDS011;74580;47.078;15.446;2024-01-30T01:36:46;3.50;;;2.45;;
84386;SDS011;74580;47.078;15.446;2024-01-30T01:39:11;3.20;;;2.58;;
84386;SDS011;74580;47.078;15.446;2024-01-30T01:41:37;3.10;;;2.17;;
84386;SDS011;74580;47.078;15.446;2024-01-30T01:44:02;3.10;;;2.30;;
84386;SDS011;74580;47.078;15.446;2024-01-30T01:46:27;4.00;;;2.70;;
84386;SDS011;74580;47.078;15.446;2024-01-30T01:48:56;3.80;;;2.58;;
84386;SDS011;74580;47.078;15.446;2024-01-30T01:51:22;3.78;;;2.35;;
84386;SDS011;74580;47.078;15.446;2024-01-30T01:53:49;3.75;;;2.60;;
84386;SDS011;74580;47.078;15.446;2024-01-30T01:56:14;3.58;;;2.67;;
84386;SDS011;74580;47.078;15.446;2024-01-30T01:58:40;4.10;;;2.03;;
84386;SDS011;74580;47.078;15.446;2024-01-30T02:01:06;4.50;;;2.55;;
84386;SDS011;74580;47.078;15.446;2024-01-30T02:03:33;4.13;;;3.05;;
84386;SDS011;74580;47.078;15.446;2024-01-30T02:05:59;3.90;;;2.30;;
84386;SDS011;74580;47.078;15.446;2024-01-30T02:08:24;3.00;;;2.08;;
84386;SDS011;74580;47.078;15.446;2024-01-30T02:10:50;2.88;;;2.13;;
84386;SDS011;74580;47.078;15.446;2024-01-30T02:13:16;3.80;;;2.33;;
84386;SDS011;74580;47.078;15.446;2024-01-30T02:15:41;4.50;;;2.40;;
84386;SDS011;74580;47.078;15.446;2024-01-30T02:18:07;3.53;;;2.15;;
84386;SDS011;74580;47.078;15.446;2024-01-30T02:20:32;3.67;;;2.25;;
84386;SDS011;74580;47.078;15.446;2024-01-30T02:23:00;4.15;;;2.92;;
84386;SDS011;74580;47.078;15.446;2024-01-30T02:25:39;3.65;;;2.28;;
84386;SDS011;74580;47.078;15.446;2024-01-30T02:28:14;3.47;;;2.42;;
84386;SDS011;74580;47.078;15.446;2024-01-30T02:30:42;2.92;;;2.00;;
84386;SDS011;74580;47.078;15.446;2024-01-30T02:33:08;3.10;;;2.20;;
84386;SDS011;74580;47.078;15.446;2024-01-30T02:35:34;3.42;;;2.15;;
84386;SDS011;74580;47.078;15.446;2024-01-30T02:37:59;4.05;;;2.30;;
84386;SDS011;74580;47.078;15.446;2024-01-30T02:40:25;3.63;;;2.35;;
84386;SDS011;74580;47.078;15.446;2024-01-30T02:42:50;3.70;;;2.65;;
84386;SDS011;74580;47.078;15.446;2024-01-30T02:45:16;3.00;;;2.17;;
84386;SDS011;74580;47.078;15.446;2024-01-30T02:47:41;3.72;;;2.50;;
84386;SDS011;74580;47.078;15.446;2024-01-30T02:50:07;3.65;;;2.80;;
84386;SDS011;74580;47.078;15.446;2024-01-30T02:52:33;4.25;;;2.50;;
84386;SDS011;74580;47.078;15.446;2024-01-30T02:54:58;4.60;;;2.22;;
84386;SDS011;74580;47.078;15.446;2024-01-30T02:57:24;4.25;;;2.38;;
84386;SDS011;74580;47.078;15.446;2024-01-30T02:59:49;4.35;;;2.50;;
84386;SDS011;74580;47.078;15.446;2024-01-30T03:02:15;4.28;;;2.60;;
84386;SDS011;74580;47.078;15.446;2024-01-30T03:04:41;3.67;;;2.63;;
84386;SDS011;74580;47.078;15.446;2024-01-30T03:07:07;3.92;;;2.30;;
84386;SDS011;74580;47.078;15.446;2024-01-30T03:09:32;5.00;;;2.75;;
84386;SDS011;74580;47.078;15.446;2024-01-30T03:11:58;4.03;;;2.92;;
84386;SDS011;74580;47.078;15.446;2024-01-30T03:14:23;3.20;;;1.98;;
84386;SDS011;74580;47.078;15.446;2024-01-30T03:16:48;3.90;;;2.22;;
84386;SDS011;74580;47.078;15.446;2024-01-30T03:19:14;3.57;;;2.13;;
84386;SDS011;74580;47.078;15.446;2024-01-30T03:21:39;3.97;;;2.30;;
84386;SDS011;74580;47.078;15.446;2024-01-30T03:24:05;3.90;;;2.40;;
84386;SDS011;74580;47.078;15.446;2024-01-30T03:26:30;3.53;;;2.10;;
84386;SDS011;74580;47.078;15.446;2024-01-30T03:28:55;3.50;;;2.42;;
84386;SDS011;74580;47.078;15.446;2024-01-30T03:31:21;3.50;;;2.35;;
84386;SDS011;74580;47.078;15.446;2024-01-30T03:33:46;3.45;;;2.53;;
84386;SDS011;74580;47.078;15.446;2024-01-30T03:36:11;4.25;;;2.50;;
84386;SDS011;74580;47.078;15.446;2024-01-30T03:38:37;3.27;;;2.40;;
84386;SDS011;74580;47.078;15.446;2024-01-30T03:41:02;4.40;;;2.60;;
84386;SDS011;74580;47.078;15.446;2024-01-30T03:43:28;4.72;;;2.38;;
84386;SDS011;74580;47.078;15.446;2024-01-30T03:45:53;3.30;;;2.22;;
84386;SDS011;74580;47.078;15.446;2024-01-30T03:48:19;3.30;;;2.17;;
84386;SDS011;74580;47.078;15.446;2024-01-30T03:50:46;4.20;;;2.42;;
84386;SDS011;74580;47.078;15.446;2024-01-30T03:53:11;3.83;;;2.63;;
84386;SDS011;74580;47.078;15.446;2024-01-30T03:55:36;3.88;;;2.45;;
84386;SDS011;74580;47.078;15.446;2024-01-30T03:58:02;3.33;;;2.20;;
84386;SDS011;74580;47.078;15.446;2024-01-30T04:00:27;3.88;;;2.30;;
84386;SDS011;74580;47.078;15.446;2024-01-30T04:02:53;3.58;;;1.95;;
84386;SDS011;74580;47.078;15.446;2024-01-30T04:05:18;3.50;;;2.33;;
84386;SDS011;74580;47.078;15.446;2024-01-30T04:07:43;3.93;;;2.83;;
84386;SDS011;74580;47.078;15.446;2024-01-30T04:10:12;3.92;;;2.60;;
84386;SDS011;74580;47.078;15.446;2024-01-30T04:12:37;4.38;;;2.47;;
84386;SDS011;74580;47.078;15.446;2024-01-30T04:15:02;4.53;;;2.60;;
84386;SDS011;74580;47.078;15.446;2024-01-30T04:17:29;4.13;;;2.45;;
84386;SDS011;74580;47.078;15.446;2024-01-30T04:19:54;3.97;;;2.97;;
84386;SDS011;74580;47.078;15.446;2024-01-30T04:22:20;3.95;;;2.53;;
84386;SDS011;74580;47.078;15.446;2024-01-30T04:24:45;3.95;;;2.65;;
84386;SDS011;74580;47.078;15.446;2024-01-30T04:27:11;3.85;;;2.25;;
84386;SDS011;74580;47.078;15.446;2024-01-30T04:29:36;3.28;;;2.20;;
84386;SDS011;74580;47.078;15.446;2024-01-30T04:32:01;4.55;;;2.70;;
84386;SDS011;74580;47.078;15.446;2024-01-30T04:34:30;3.20;;;2.25;;
84386;SDS011;74580;47.078;15.446;2024-01-30T04:36:55;3.92;;;2.58;;
84386;SDS011;74580;47.078;15.446;2024-01-30T04:39:21;3.85;;;2.65;;
84386;SDS011;74580;47.078;15.446;2024-01-30T04:41:46;4.47;;;2.83;;
84386;SDS011;74580;47.078;15.446;2024-01-30T04:44:12;4.57;;;2.55;;
84386;SDS011;74580;47.078;15.446;2024-01-30T04:46:37;4.32;;;2.95;;
84386;SDS011;74580;47.078;15.446;2024-01-30T04:49:03;4.13;;;2.83;;
84386;SDS011;74580;47.078;15.446;2024-01-30T04:51:28;3.67;;;2.40;;
84386;SDS011;74580;47.078;15.446;2024-01-30T04:53:54;3.55;;;2.50;;
84386;SDS011;74580;47.078;15.446;2024-01-30T04:56:20;4.20;;;2.70;;
84386;SDS011;74580;47.078;15.446;2024-01-30T04:58:45;3.85;;;2.33;;
84386;SDS011;74580;47.078;15.446;2024-01-30T05:01:14;3.13;;;2.20;;
84386;SDS011;74580;47.078;15.446;2024-01-30T05:03:41;3.42;;;2.35;;
84386;SDS011;74580;47.078;15.446;2024-01-30T05:06:06;4.22;;;2.67;;
84386;SDS011;74580;47.078;15.446;2024-01-30T05:08:31;3.15;;;2.30;;
84386;SDS011;74580;47.078;15.446;2024-01-30T05:10:59;3.55;;;2.50;;
84386;SDS011;74580;47.078;15.446;2024-01-30T05:13:25;3.50;;;2.47;;
84386;SDS011;74580;47.078;15.446;2024-01-30T05:15:51;3.25;;;2.55;;
84386;SDS011;74580;47.078;15.446;2024-01-30T05:18:16;3.63;;;2.35;;
84386;SDS011;74580;47.078;15.446;2024-01-30T05:20:41;3.75;;;2.20;;
84386;SDS011;74580;47.078;15.446;2024-01-30T05:23:07;3.08;;;2.17;;
84386;SDS011;74580;47.078;15.446;2024-01-30T05:25:33;3.05;;;2.17;;
84386;SDS011;74580;47.078;15.446;2024-01-30T05:27:58;3.88;;;2.10;;
84386;SDS011;74580;47.078;15.446;2024-01-30T05:30:24;4.43;;;2.40;;
84386;SDS011;74580;47.078;15.446;2024-01-30T05:32:49;4.22;;;2.55;;
84386;SDS011;74580;47.078;15.446;2024-01-30T05:35:14;3.60;;;2.17;;
84386;SDS011;74580;47.078;15.446;2024-01-30T05:37:40;3.40;;;2.50;;
84386;SDS011;74580;47.078;15.446;2024-01-30T05:40:06;4.13;;;2.53;;
84386;SDS011;74580;47.078;15.446;2024-01-30T05:42:31;3.58;;;2.50;;
84386;SDS011;74580;47.078;15.446;2024-01-30T05:44:59;4.57;;;2.28;;
84386;SDS011;74580;47.078;15.446;2024-01-30T05:47:25;4.57;;;2.65;;
84386;SDS011;74580;47.078;15.446;2024-01-30T05:49:50;5.93;;;3.63;;
84386;SDS011;74580;47.078;15.446;2024-01-30T05:52:16;5.78;;;3.45;;
84386;SDS011;74580;47.078;15.446;2024-01-30T05:54:41;7.85;;;3.90;;
84386;SDS011;74580;47.078;15.446;2024-01-30T05:57:06;7.55;;;4.47;;
84386;SDS011;74580;47.078;15.446;2024-01-30T05:59:32;6.22;;;3.25;;
84386;SDS011;74580;47.078;15.446;2024-01-30T06:01:57;7.10;;;3.70;;
84386;SDS011;74580;47.078;15.446;2024-01-30T06:04:23;6.32;;;3.42;;
84386;SDS011;74580;47.078;15.446;2024-01-30T06:06:48;7.90;;;4.82;;
84386;SDS011;74580;47.078;15.446;2024-01-30T06:09:14;6.93;;;3.90;;
84386;SDS011;74580;47.078;15.446;2024-01-30T06:11:39;8.32;;;4.07;;
84386;SDS011;74580;47.078;15.446;2024-01-30T06:14:04;7.32;;;4.18;;
84386;SDS011;74580;47.078;15.446;2024-01-30T06:16:30;6.95;;;3.95;;
84386;SDS011;74580;47.078;15.446;2024-01-30T06:18:56;10.18;;;4.57;;
84386;SDS011;74580;47.078;15.446;2024-01-30T06:21:21;8.00;;;5.00;;
84386;SDS011;74580;47.078;15.446;2024-01-30T06:23:47;8.90;;;5.05;;
84386;SDS011;74580;47.078;15.446;2024-01-30T06:26:12;7.93;;;5.28;;
84386;SDS011;74580;47.078;15.446;2024-01-30T06:28:37;8.35;;;5.60;;
84386;SDS011;74580;47.078;15.446;2024-01-30T06:31:03;8.43;;;4.78;;
84386;SDS011;74580;47.078;15.446;2024-01-30T06:33:28;9.80;;;4.90;;
84386;SDS011;74580;47.078;15.446;2024-01-30T06:35:54;7.90;;;5.25;;
84386;SDS011;74580;47.078;15.446;2024-01-30T06:38:19;8.93;;;5.50;;
84386;SDS011;74580;47.078;15.446;2024-01-30T06:40:44;8.02;;;5.13;;
84386;SDS011;74580;47.078;15.446;2024-01-30T06:43:10;9.02;;;5.22;;
84386;SDS011;74580;47.078;15.446;2024-01-30T06:45:36;9.95;;;4.90;;
84386;SDS011;74580;47.078;15.446;2024-01-30T06:48:02;9.20;;;5.00;;
84386;SDS011;74580;47.078;15.446;2024-01-30T06:50:28;6.25;;;5.18;;
84386;SDS011;74580;47.078;15.446;2024-01-30T06:52:53;8.82;;;4.70;;
84386;SDS011;74580;47.078;15.446;2024-01-30T06:55:18;10.77;;;4.50;;
84386;SDS011;74580;47.078;15.446;2024-01-30T06:57:44;9.85;;;5.10;;
84386;SDS011;74580;47.078;15.446;2024-01-30T07:00:10;6.88;;;4.57;;
84386;SDS011;74580;47.078;15.446;2024-01-30T07:02:35;8.52;;;4.60;;
84386;SDS011;74580;47.078;15.446;2024-01-30T07:05:01;7.70;;;4.97;;
84386;SDS011;74580;47.078;15.446;2024-01-30T07:07:27;7.82;;;4.65;;
84386;SDS011;74580;47.078;15.446;2024-01-30T07:09:53;6.15;;;3.90;;
84386;SDS011;74580;47.078;15.446;2024-01-30T07:12:21;5.70;;;4.32;;
84386;SDS011;74580;47.078;15.446;2024-01-30T07:14:51;6.40;;;4.65;;
84386;SDS011;74580;47.078;15.446;2024-01-30T07:17:16;6.35;;;3.90;;
84386;SDS011;74580;47.078;15.446;2024-01-30T07:19:42;6.72;;;4.60;;
84386;SDS011;74580;47.078;15.446;2024-01-30T07:22:07;6.97;;;4.22;;
84386;SDS011;74580;47.078;15.446;2024-01-30T07:24:33;6.68;;;4.45;;
84386;SDS011;74580;47.078;15.446;2024-01-30T07:26:58;8.25;;;4.88;;
84386;SDS011;74580;47.078;15.446;2024-01-30T07:29:24;8.02;;;4.65;;
84386;SDS011;74580;47.078;15.446;2024-01-30T07:31:49;8.32;;;4.28;;
84386;SDS011;74580;47.078;15.446;2024-01-30T07:34:15;7.68;;;4.20;;
84386;SDS011;74580;47.078;15.446;2024-01-30T07:36:40;7.80;;;4.55;;
84386;SDS011;74580;47.078;15.446;2024-01-30T07:39:05;6.43;;;4.20;;
84386;SDS011;74580;47.078;15.446;2024-01-30T07:41:31;8.23;;;4.13;;
84386;SDS011;74580;47.078;15.446;2024-01-30T07:43:56;10.23;;;4.88;;
84386;SDS011;74580;47.078;15.446;2024-01-30T07:46:22;7.38;;;4.70;;
84386;SDS011;74580;47.078;15.446;2024-01-30T07:48:47;6.38;;;4.03;;
84386;SDS011;74580;47.078;15.446;2024-01-30T07:51:13;9.13;;;3.97;;
84386;SDS011;74580;47.078;15.446;2024-01-30T07:53:38;7.07;;;4.18;;
84386;SDS011;74580;47.078;15.446;2024-01-30T07:56:05;6.28;;;3.95;;
84386;SDS011;74580;47.078;15.446;2024-01-30T07:58:30;8.40;;;5.05;;
84386;SDS011;74580;47.078;15.446;2024-01-30T08:00:56;5.90;;;4.05;;
84386;SDS011;74580;47.078;15.446;2024-01-30T08:03:23;7.72;;;5.43;;
84386;SDS011;74580;47.078;15.446;2024-01-30T08:05:48;7.93;;;4.53;;
84386;SDS011;74580;47.078;15.446;2024-01-30T08:08:14;6.53;;;4.90;;
84386;SDS011;74580;47.078;15.446;2024-01-30T08:10:39;9.07;;;5.35;;
84386;SDS011;74580;47.078;15.446;2024-01-30T08:13:05;6.75;;;4.88;;
84386;SDS011;74580;47.078;15.446;2024-01-30T08:15:30;6.88;;;4.70;;
84386;SDS011;74580;47.078;15.446;2024-01-30T08:17:56;8.35;;;4.63;;
84386;SDS011;74580;47.078;15.446;2024-01-30T08:20:23;6.55;;;4.72;;
84386;SDS011;74580;47.078;15.446;2024-01-30T08:22:49;6.28;;;4.10;;
84386;SDS011;74580;47.078;15.446;2024-01-30T08:25:14;7.20;;;4.50;;
84386;SDS011;74580;47.078;15.446;2024-01-30T08:27:40;9.65;;;4.35;;
84386;SDS011;74580;47.078;15.446;2024-01-30T08:30:06;7.05;;;4.80;;
84386;SDS011;74580;47.078;15.446;2024-01-30T08:32:32;7.40;;;4.60;;
84386;SDS011;74580;47.078;15.446;2024-01-30T08:34:58;8.20;;;4.40;;
84386;SDS011;74580;47.078;15.446;2024-01-30T08:37:23;6.72;;;4.80;;
84386;SDS011;74580;47.078;15.446;2024-01-30T08:39:49;5.40;;;3.75;;
84386;SDS011;74580;47.078;15.446;2024-01-30T08:42:14;8.48;;;4.75;;
84386;SDS011;74580;47.078;15.446;2024-01-30T08:44:40;12.00;;;5.00;;
84386;SDS011;74580;47.078;15.446;2024-01-30T08:47:06;6.05;;;4.07;;
84386;SDS011;74580;47.078;15.446;2024-01-30T08:49:31;7.25;;;4.30;;
84386;SDS011;74580;47.078;15.446;2024-01-30T08:51:57;7.05;;;3.80;;
84386;SDS011;74580;47.078;15.446;2024-01-30T08:54:23;6.93;;;4.22;;
84386;SDS011;74580;47.078;15.446;2024-01-30T08:56:48;8.57;;;4.68;;
84386;SDS011;74580;47.078;15.446;2024-01-30T08:59:14;6.85;;;4.53;;
84386;SDS011;74580;47.078;15.446;2024-01-30T09:01:39;6.05;;;3.97;;
84386;SDS011;74580;47.078;15.446;2024-01-30T09:04:05;6.07;;;4.53;;
84386;SDS011;74580;47.078;15.446;2024-01-30T09:06:30;6.35;;;4.53;;
84386;SDS011;74580;47.078;15.446;2024-01-30T09:08:56;8.27;;;4.38;;
84386;SDS011;74580;47.078;15.446;2024-01-30T09:11:23;5.78;;;3.90;;
84386;SDS011;74580;47.078;15.446;2024-01-30T09:13:48;6.32;;;5.18;;
84386;SDS011;74580;47.078;15.446;2024-01-30T09:16:14;6.22;;;3.88;;
84386;SDS011;74580;47.078;15.446;2024-01-30T09:18:41;6.63;;;4.88;;
84386;SDS011;74580;47.078;15.446;2024-01-30T09:21:06;6.93;;;5.10;;
84386;SDS011;74580;47.078;15.446;2024-01-30T09:23:31;6.87;;;4.43;;
84386;SDS011;74580;47.078;15.446;2024-01-30T09:25:57;6.22;;;4.78;;
84386;SDS011;74580;47.078;15.446;2024-01-30T09:28:22;7.40;;;4.35;;
84386;SDS011;74580;47.078;15.446;2024-01-30T09:30:48;5.32;;;3.83;;
84386;SDS011;74580;47.078;15.446;2024-01-30T09:33:13;6.45;;;4.03;;
84386;SDS011;74580;47.078;15.446;2024-01-30T09:35:38;6.28;;;3.97;;
84386;SDS011;74580;47.078;15.446;2024-01-30T09:38:04;6.65;;;3.53;;
84386;SDS011;74580;47.078;15.446;2024-01-30T09:40:29;7.30;;;4.63;;
84386;SDS011;74580;47.078;15.446;2024-01-30T09:42:55;16.70;;;8.57;;
84386;SDS011;74580;47.078;15.446;2024-01-30T09:45:23;9.38;;;6.10;;
84386;SDS011;74580;47.078;15.446;2024-01-30T09:47:50;10.50;;;4.68;;
84386;SDS011;74580;47.078;15.446;2024-01-30T09:50:16;7.68;;;5.03;;
84386;SDS011;74580;47.078;15.446;2024-01-30T09:52:45;10.73;;;5.72;;
84386;SDS011;74580;47.078;15.446;2024-01-30T09:55:11;10.43;;;5.40;;
84386;SDS011;74580;47.078;15.446;2024-01-30T09:57:37;9.65;;;5.95;;
84386;SDS011;74580;47.078;15.446;2024-01-30T10:00:03;7.68;;;5.57;;
84386;SDS011;74580;47.078;15.446;2024-01-30T10:02:31;12.18;;;5.75;;
84386;SDS011;74580;47.078;15.446;2024-01-30T10:04:56;8.65;;;5.38;;
84386;SDS011;74580;47.078;15.446;2024-01-30T10:07:22;7.78;;;4.93;;
84386;SDS011;74580;47.078;15.446;2024-01-30T10:09:48;8.02;;;4.85;;
84386;SDS011;74580;47.078;15.446;2024-01-30T10:12:14;8.40;;;5.38;;
84386;SDS011;74580;47.078;15.446;2024-01-30T10:14:40;8.23;;;4.88;;
84386;SDS011;74580;47.078;15.446;2024-01-30T10:17:09;8.18;;;5.47;;
84386;SDS011;74580;47.078;15.446;2024-01-30T10:19:35;7.28;;;4.55;;
84386;SDS011;74580;47.078;15.446;2024-01-30T10:22:01;8.68;;;5.50;;
84386;SDS011;74580;47.078;15.446;2024-01-30T10:24:27;7.32;;;4.68;;
84386;SDS011;74580;47.078;15.446;2024-01-30T10:26:54;6.82;;;4.88;;
84386;SDS011;74580;47.078;15.446;2024-01-30T10:29:20;8.25;;;4.97;;
84386;SDS011;74580;47.078;15.446;2024-01-30T10:31:46;7.25;;;4.78;;
84386;SDS011;74580;47.078;15.446;2024-01-30T10:34:12;7.38;;;5.45;;
84386;SDS011;74580;47.078;15.446;2024-01-30T10:36:41;7.20;;;4.95;;
84386;SDS011;74580;47.078;15.446;2024-01-30T10:39:11;7.18;;;4.93;;
84386;SDS011;74580;47.078;15.446;2024-01-30T10:41:43;7.72;;;4.80;;
84386;SDS011;74580;47.078;15.446;2024-01-30T10:44:09;8.15;;;4.80;;
84386;SDS011;74580;47.078;15.446;2024-01-30T10:46:37;6.80;;;5.07;;
84386;SDS011;74580;47.078;15.446;2024-01-30T10:49:04;6.53;;;4.72;;
84386;SDS011;74580;47.078;15.446;2024-01-30T10:51:31;6.75;;;4.97;;
84386;SDS011;74580;47.078;15.446;2024-01-30T10:53:57;7.45;;;4.97;;
84386;SDS011;74580;47.078;15.446;2024-01-30T10:56:23;8.18;;;5.10;;
84386;SDS011;74580;47.078;15.446;2024-01-30T10:58:50;7.82;;;4.32;;
84386;SDS011;74580;47.078;15.446;2024-01-30T11:01:17;9.35;;;4.60;;
84386;SDS011;74580;47.078;15.446;2024-01-30T11:03:49;6.03;;;4.57;;
84386;SDS011;74580;47.078;15.446;2024-01-30T11:06:16;7.93;;;4.32;;
84386;SDS011;74580;47.078;15.446;2024-01-30T11:08:43;7.97;;;5.10;;
84386;SDS011;74580;47.078;15.446;2024-01-30T11:11:10;6.32;;;4.75;;
84386;SDS011;74580;47.078;15.446;2024-01-30T11:13:35;6.45;;;4.63;;
84386;SDS011;74580;47.078;15.446;2024-01-30T11:16:01;7.72;;;4.50;;
84386;SDS011;74580;47.078;15.446;2024-01-30T11:18:31;7.82;;;4.20;;
84386;SDS011;74580;47.078;15.446;2024-01-30T11:20:57;7.30;;;4.32;;
84386;SDS011;74580;47.078;15.446;2024-01-30T11:23:25;6.75;;;4.10;;
84386;SDS011;74580;47.078;15.446;2024-01-30T11:25:52;6.05;;;4.00;;
84386;SDS011;74580;47.078;15.446;2024-01-30T11:28:18;6.65;;;4.47;;
84386;SDS011;74580;47.078;15.446;2024-01-30T11:30:44;6.07;;;3.72;;
84386;SDS011;74580;47.078;15.446;2024-01-30T11:33:10;6.32;;;4.50;;
84386;SDS011;74580;47.078;15.446;2024-01-30T11:35:41;5.78;;;4.63;;
84386;SDS011;74580;47.078;15.446;2024-01-30T11:38:08;7.00;;;4.10;;
84386;SDS011;74580;47.078;15.446;2024-01-30T11:40:35;6.15;;;4.22;;
84386;SDS011;74580;47.078;15.446;2024-01-30T11:43:03;8.25;;;4.53;;
84386;SDS011;74580;47.078;15.446;2024-01-30T11:45:30;7.38;;;4.20;;
84386;SDS011;74580;47.078;15.446;2024-01-30T11:47:56;8.00;;;4.15;;
84386;SDS011;74580;47.078;15.446;2024-01-30T11:50:22;6.07;;;4.38;;
84386;SDS011;74580;47.078;15.446;2024-01-30T11:52:48;7.90;;;4.90;;
84386;SDS011;74580;47.078;15.446;2024-01-30T11:55:14;7.00;;;3.83;;
84386;SDS011;74580;47.078;15.446;2024-01-30T11:57:40;6.15;;;3.83;;
84386;SDS011;74580;47.078;15.446;2024-01-30T12:00:06;7.57;;;4.38;;
84386;SDS011;74580;47.078;15.446;2024-01-30T12:02:43;6.55;;;4.03;;
84386;SDS011;74580;47.078;15.446;2024-01-30T12:05:09;6.18;;;3.55;;
84386;SDS011;74580;47.078;15.446;2024-01-30T12:07:34;5.75;;;4.18;;
84386;SDS011;74580;47.078;15.446;2024-01-30T12:10:00;10.40;;;6.43;;
84386;SDS011;74580;47.078;15.446;2024-01-30T12:12:27;10.23;;;4.30;;
84386;SDS011;74580;47.078;15.446;2024-01-30T12:14:53;8.65;;;5.90;;
84386;SDS011;74580;47.078;15.446;2024-01-30T12:17:23;7.93;;;5.10;;
84386;SDS011;74580;47.078;15.446;2024-01-30T12:19:49;8.65;;;5.32;;
84386;SDS011;74580;47.078;15.446;2024-01-30T12:22:15;9.25;;;4.53;;
84386;SDS011;74580;47.078;15.446;2024-01-30T12:24:40;6.90;;;4.75;;
84386;SDS011;74580;47.078;15.446;2024-01-30T12:27:06;6.55;;;4.15;;
84386;SDS011;74580;47.078;15.446;2024-01-30T12:29:34;7.68;;;4.60;;
84386;SDS011;74580;47.078;15.446;2024-01-30T12:31:59;7.22;;;5.13;;
84386;SDS011;74580;47.078;15.446;2024-01-30T12:34:25;7.05;;;4.63;;
84386;SDS011;74580;47.078;15.446;2024-01-30T12:36:50;9.18;;;5.18;;
84386;SDS011;74580;47.078;15.446;2024-01-30T12:39:15;8.10;;;4.82;;
84386;SDS011;74580;47.078;15.446;2024-01-30T12:41:41;7.53;;;4.55;;
84386;SDS011;74580;47.078;15.446;2024-01-30T12:44:07;7.30;;;4.68;;
84386;SDS011;74580;47.078;15.446;2024-01-30T12:46:36;6.35;;;4.47;;
84386;SDS011;74580;47.078;15.446;2024-01-30T12:49:01;8.43;;;4.60;;
84386;SDS011;74580;47.078;15.446;2024-01-30T12:51:27;6.13;;;3.72;;
84386;SDS011;74580;47.078;15.446;2024-01-30T12:53:52;6.50;;;4.53;;
84386;SDS011;74580;47.078;15.446;2024-01-30T12:56:17;6.95;;;4.72;;
84386;SDS011;74580;47.078;15.446;2024-01-30T12:58:43;5.10;;;3.97;;
84386;SDS011;74580;47.078;15.446;2024-01-30T13:01:09;7.40;;;4.55;;
84386;SDS011;74580;47.078;15.446;2024-01-30T13:03:35;7.35;;;3.90;;
84386;SDS011;74580;47.078;15.446;2024-01-30T13:06:00;5.63;;;4.60;;
84386;SDS011;74580;47.078;15.446;2024-01-30T13:08:26;7.53;;;4.70;;
84386;SDS011;74580;47.078;15.446;2024-01-30T13:10:51;5.35;;;3.75;;
84386;SDS011;74580;47.078;15.446;2024-01-30T13:13:16;6.68;;;4.30;;
84386;SDS011;74580;47.078;15.446;2024-01-30T13:15:42;6.05;;;4.22;;
84386;SDS011;74580;47.078;15.446;2024-01-30T13:18:07;6.82;;;3.92;;
84386;SDS011;74580;47.078;15.446;2024-01-30T13:20:33;7.18;;;3.90;;
84386;SDS011;74580;47.078;15.446;2024-01-30T13:22:58;7.95;;;4.32;;
84386;SDS011;74580;47.078;15.446;2024-01-30T13:25:24;6.30;;;4.25;;
84386;SDS011;74580;47.078;15.446;2024-01-30T13:27:49;7.40;;;4.75;;
84386;SDS011;74580;47.078;15.446;2024-01-30T13:30:14;6.10;;;4.40;;
84386;SDS011;74580;47.078;15.446;2024-01-30T13:32:40;6.60;;;4.80;;
84386;SDS011;74580;47.078;15.446;2024-01-30T13:35:09;5.38;;;3.45;;
84386;SDS011;74580;47.078;15.446;2024-01-30T13:37:34;5.32;;;3.83;;
84386;SDS011;74580;47.078;15.446;2024-01-30T13:40:00;5.25;;;4.00;;
84386;SDS011;74580;47.078;15.446;2024-01-30T13:42:25;6.97;;;4.35;;
84386;SDS011;74580;47.078;15.446;2024-01-30T13:44:51;6.23;;;3.83;;
84386;SDS011;74580;47.078;15.446;2024-01-30T13:47:16;6.68;;;3.92;;
84386;SDS011;74580;47.078;15.446;2024-01-30T13:49:43;4.70;;;3.50;;
84386;SDS011;74580;47.078;15.446;2024-01-30T13:52:09;6.30;;;3.58;;
84386;SDS011;74580;47.078;15.446;2024-01-30T13:54:34;6.20;;;3.78;;
84386;SDS011;74580;47.078;15.446;2024-01-30T13:56:59;6.93;;;4.30;;
84386;SDS011;74580;47.078;15.446;2024-01-30T13:59:25;6.50;;;4.00;;
84386;SDS011;74580;47.078;15.446;2024-01-30T14:01:51;5.55;;;3.70;;
84386;SDS011;74580;47.078;15.446;2024-01-30T14:04:16;5.00;;;3.33;;
84386;SDS011;74580;47.078;15.446;2024-01-30T14:06:42;7.85;;;3.75;;
84386;SDS011;74580;47.078;15.446;2024-01-30T14:09:07;6.47;;;3.63;;
84386;SDS011;74580;47.078;15.446;2024-01-30T14:11:33;7.07;;;4.10;;
84386;SDS011;74580;47.078;15.446;2024-01-30T14:13:58;4.72;;;3.80;;
84386;SDS011;74580;47.078;15.446;2024-01-30T14:16:24;6.20;;;3.45;;
84386;SDS011;74580;47.078;15.446;2024-01-30T14:18:49;6.20;;;3.83;;
84386;SDS011;74580;47.078;15.446;2024-01-30T14:21:15;5.03;;;3.42;;
84386;SDS011;74580;47.078;15.446;2024-01-30T14:23:40;5.20;;;3.72;;
84386;SDS011;74580;47.078;15.446;2024-01-30T14:26:06;5.68;;;3.72;;